SLJE/SJS METAR and TAF weather

Enter ICAO airport designator
Station Type Date Time Source
SLJE METAR 2023/02/03 20:00 UTC NOAA

SLJE 032000Z 00000KT 9999 OVC015 27/23 Q1015


Station Type Date Time Source
SLJE Decoded METAR 2023/02/03 20:00 UTC NOAA

San Jose De Chiquitos, Bolivia (SLJE) 17-48S 060-44W
Feb 03, 2023 - 03:00 PM EST / 2023.02.03 2000 UTC
Wind: Calm:0
Visibility: greater than 7 mile(s):0
Sky conditions: overcast
Temperature: 80 F (27 C)
Dew Point: 73 F (23 C)
Relative Humidity: 78%
Pressure (altimeter): 29.97 in. Hg (1015 hPa)
ob: SLJE 032000Z 00000KT 9999 OVC015 27/23 Q1015
cycle: 20

Station Type Date Time Source
SLJE TAF 2009/01/07 11:00 UTC NOAA

METAR SLJE 071100Z 00000KT 9999 SKC 21/18 Q1014

Example: see airport list